Terminal Aerodrome Forecast
Issued by NWS

Home | Current Version | Previous Version | Graphics & Text | Print | Product List | Glossary On
Versions: 1 2 3 4 5 6 7 8 9 10 11 12 13 14 15 16 17 18
000
FTUS43 KICT 172300
TAFHUT
TAF
KHUT 172331Z 1800/1824 09009KT P6SM SCT150
     FM180600 09008KT P6SM VCTS SCT007 BKN060CB
     FM180900 10007KT 3SM BR OVC007
     FM181500 12008KT P6SM BKN015
     FM181800 14008KT P6SM FEW040=

USA.gov is the U.S. government's official web portal to all federal, state and local government web resources and services.